createdAt,value
2017-10-10T00:02:15.753Z,99756.73
2017-10-10T00:04:43.231Z,99757.22
2017-10-10T00:07:10.743Z,99762.35
2017-10-10T00:09:38.231Z,99749.09
2017-10-10T00:12:05.721Z,99751.55
2017-10-10T00:14:33.280Z,99745.16
2017-10-10T00:17:00.751Z,99750.27
2017-10-10T00:19:28.223Z,99752.16
2017-10-10T00:21:55.729Z,99744.77
2017-10-10T00:24:23.209Z,99747.87
2017-10-10T00:26:50.728Z,99745.73
2017-10-10T00:29:18.221Z,99747.38
2017-10-10T00:31:45.699Z,99749.84
2017-10-10T00:34:13.207Z,99741.78
2017-10-10T00:36:40.693Z,99740.86
2017-10-10T00:39:08.159Z,99736.11
2017-10-10T00:41:35.678Z,99734.23
2017-10-10T00:44:03.170Z,99734.22
2017-10-10T00:46:30.678Z,99729.31
2017-10-10T00:48:58.150Z,99731.47
2017-10-10T00:51:25.690Z,99732.84
2017-10-10T00:53:53.173Z,99723.01
2017-10-10T00:56:20.634Z,99723.32
2017-10-10T00:58:48.146Z,99724.38
2017-10-10T01:01:15.617Z,99723.63
2017-10-10T01:03:43.102Z,99731.34
2017-10-10T01:06:10.573Z,99726.63
2017-10-10T01:08:38.043Z,99723.53
2017-10-10T01:11:05.503Z,99723.23
2017-10-10T01:13:33.002Z,99727.18
2017-10-10T01:16:00.474Z,99727.06
2017-10-10T01:21:02.151Z,99724.13
2017-10-10T01:23:29.639Z,99727.44
2017-10-10T01:25:57.128Z,99726.58
2017-10-10T01:28:24.629Z,99730.60
2017-10-10T01:30:52.127Z,99723.27
2017-10-10T01:33:19.726Z,99726.64
2017-10-10T01:35:47.211Z,99736.00
2017-10-10T01:38:14.690Z,99735.34
2017-10-10T01:40:42.180Z,99729.52
2017-10-10T01:43:09.704Z,99730.81
2017-10-10T01:45:37.189Z,99728.46
2017-10-10T01:48:04.750Z,99727.30
2017-10-10T01:50:32.247Z,99723.01
2017-10-10T01:52:59.709Z,99720.81
2017-10-10T01:55:27.166Z,99721.95
2017-10-10T01:57:54.658Z,99722.59
2017-10-10T02:00:22.234Z,99721.91
2017-10-10T02:02:49.701Z,99722.81
2017-10-10T02:05:17.176Z,99720.29
2017-10-10T02:07:44.632Z,99721.59
2017-10-10T02:10:12.116Z,99722.22
2017-10-10T02:12:39.646Z,99719.59
2017-10-10T02:15:07.113Z,99722.05
2017-10-10T02:17:34.573Z,99717.58
2017-10-10T02:20:02.068Z,99719.87
2017-10-10T02:22:29.550Z,99714.94
2017-10-10T02:24:57.015Z,99715.98
2017-10-10T02:27:24.488Z,99717.30
2017-10-10T02:29:52.004Z,99715.12
2017-10-10T02:32:19.490Z,99714.21
2017-10-10T02:34:46.986Z,99719.87
2017-10-10T02:37:14.447Z,99710.45
2017-10-10T02:39:41.940Z,99710.89
2017-10-10T02:42:09.453Z,99707.84
2017-10-10T02:44:36.958Z,99716.02
2017-10-10T02:47:04.698Z,99713.99
2017-10-10T02:49:33.066Z,99715.70
2017-10-10T02:52:00.556Z,99709.72
2017-10-10T02:54:28.040Z,99713.14
2017-10-10T02:56:55.563Z,99705.06
2017-10-10T02:59:23.043Z,99711.97
2017-10-10T03:01:50.533Z,99702.19
2017-10-10T03:04:18.016Z,99698.72
2017-10-10T03:06:45.492Z,99701.27
2017-10-10T03:09:12.949Z,99696.25
2017-10-10T03:11:40.450Z,99697.97
2017-10-10T03:14:07.928Z,99694.23
2017-10-10T03:16:35.382Z,99698.92
2017-10-10T03:19:02.867Z,99696.55
2017-10-10T03:21:30.348Z,99699.97
2017-10-10T03:23:57.870Z,99696.86
2017-10-10T03:26:25.355Z,99702.86
2017-10-10T03:28:52.826Z,99704.66
2017-10-10T03:31:20.304Z,99701.67
2017-10-10T03:33:47.814Z,99702.20
2017-10-10T03:36:15.265Z,99706.27
2017-10-10T03:38:42.728Z,99696.86
2017-10-10T03:41:10.224Z,99701.11
2017-10-10T03:43:37.683Z,99702.91
2017-10-10T03:46:05.147Z,99686.23
2017-10-10T03:48:32.632Z,99694.61
2017-10-10T03:51:00.097Z,99682.64
2017-10-10T03:53:27.561Z,99688.80
2017-10-10T03:55:55.034Z,99683.06
2017-10-10T03:58:22.492Z,99678.92
2017-10-10T04:00:49.960Z,99674.17
2017-10-10T04:03:17.448Z,99670.11
2017-10-10T04:05:44.938Z,99672.30
2017-10-10T04:08:12.407Z,99679.98
2017-10-10T04:10:39.915Z,99668.97
2017-10-10T04:13:07.368Z,99667.86
2017-10-10T04:15:34.851Z,99674.75
2017-10-10T04:18:02.322Z,99672.98
2017-10-10T04:20:29.777Z,99669.95
2017-10-10T04:22:57.256Z,99669.52
2017-10-10T04:25:24.759Z,99669.67
2017-10-10T04:27:52.232Z,99673.47
2017-10-10T04:30:20.001Z,99682.75
2017-10-10T04:32:47.478Z,99677.31
2017-10-10T04:35:14.948Z,99671.91
2017-10-10T04:37:42.422Z,99672.39
2017-10-10T04:40:09.914Z,99681.70
2017-10-10T04:42:37.427Z,99674.30
2017-10-10T04:45:04.924Z,99673.02
2017-10-10T04:47:32.409Z,99671.32
2017-10-10T04:49:59.882Z,99672.98
2017-10-10T04:52:27.394Z,99678.00
2017-10-10T04:54:54.885Z,99668.75
2017-10-10T04:57:22.349Z,99682.56
2017-10-10T04:59:49.824Z,99687.22
2017-10-10T05:02:17.325Z,99687.07
2017-10-10T05:04:44.824Z,99677.34
2017-10-10T05:07:12.291Z,99679.70
2017-10-10T05:09:39.778Z,99679.76
2017-10-10T05:12:07.253Z,99684.45
2017-10-10T05:14:34.794Z,99684.99
2017-10-10T05:17:02.355Z,99684.79
2017-10-10T05:19:29.829Z,99683.06
2017-10-10T05:21:57.418Z,99688.73
2017-10-10T05:24:24.913Z,99691.61
2017-10-10T05:26:52.361Z,99688.96
2017-10-10T05:29:19.881Z,99703.44
2017-10-10T05:31:47.370Z,99698.10
2017-10-10T05:34:14.841Z,99696.79
2017-10-10T05:36:42.313Z,99701.81
2017-10-10T05:39:09.817Z,99705.49
2017-10-10T05:41:37.288Z,99695.92
2017-10-10T05:44:04.746Z,99712.88
2017-10-10T05:46:32.234Z,99701.81
2017-10-10T05:48:59.732Z,99697.25
2017-10-10T05:51:27.236Z,99708.84
2017-10-10T05:53:54.731Z,99705.63
2017-10-10T05:56:22.292Z,99697.92
2017-10-10T05:58:49.739Z,99702.62
2017-10-10T06:01:17.229Z,99714.24
2017-10-10T06:03:44.702Z,99703.84
2017-10-10T06:06:12.165Z,99709.34
2017-10-10T06:08:39.648Z,99710.89
2017-10-10T06:11:07.126Z,99715.41
2017-10-10T06:13:34.593Z,99707.83
2017-10-10T06:16:02.101Z,99712.48
2017-10-10T06:18:29.557Z,99718.09
2017-10-10T06:20:57.029Z,99710.09
2017-10-10T06:23:24.548Z,99714.91
2017-10-10T06:25:52.035Z,99715.72
2017-10-10T06:28:19.510Z,99725.48
2017-10-10T06:30:46.982Z,99723.29
2017-10-10T06:33:14.482Z,99722.99
2017-10-10T06:35:41.964Z,99725.19
2017-10-10T06:38:09.445Z,99731.59
2017-10-10T06:40:36.913Z,99735.71
2017-10-10T06:43:04.411Z,99739.12
2017-10-10T06:45:31.882Z,99739.48
2017-10-10T06:47:59.351Z,99739.23
2017-10-10T06:50:26.812Z,99742.28
2017-10-10T06:52:54.299Z,99748.23
2017-10-10T06:55:21.836Z,99759.28
2017-10-10T06:57:49.348Z,99765.85
2017-10-10T07:00:16.839Z,99755.87
2017-10-10T07:02:44.298Z,99761.42
2017-10-10T07:05:11.756Z,99757.88
2017-10-10T07:07:39.258Z,99756.58
2017-10-10T07:10:06.731Z,99753.98
2017-10-10T07:12:34.224Z,99744.61
2017-10-10T07:15:01.712Z,99748.77
2017-10-10T07:17:29.221Z,99748.91
2017-10-10T07:19:56.790Z,99752.73
2017-10-10T07:22:24.299Z,99749.25
2017-10-10T07:24:51.774Z,99753.58
2017-10-10T07:27:19.321Z,99753.95
2017-10-10T07:29:46.805Z,99752.52
2017-10-10T07:32:14.285Z,99765.36
2017-10-10T07:34:41.767Z,99758.17
2017-10-10T07:37:09.257Z,99753.02
2017-10-10T07:39:36.736Z,99756.94
2017-10-10T07:42:04.203Z,99754.39
2017-10-10T07:44:31.677Z,99760.09
2017-10-10T07:46:59.232Z,99754.45
2017-10-10T07:49:26.730Z,99751.09
2017-10-10T07:51:54.229Z,99754.73
2017-10-10T07:54:21.950Z,99761.86
2017-10-10T07:56:49.457Z,99760.52
2017-10-10T07:59:16.927Z,99757.19
2017-10-10T08:01:44.410Z,99750.17
2017-10-10T08:04:11.935Z,99760.58
2017-10-10T08:06:39.405Z,99762.16
2017-10-10T08:09:06.892Z,99764.59
2017-10-10T08:11:34.369Z,99765.61
2017-10-10T08:14:01.829Z,99764.09
2017-10-10T08:16:29.364Z,99766.02
2017-10-10T08:18:56.870Z,99768.38
2017-10-10T08:21:24.356Z,99762.03
2017-10-10T08:23:51.856Z,99763.80
2017-10-10T08:26:19.358Z,99752.64
2017-10-10T08:28:46.865Z,99757.45
2017-10-10T08:31:14.365Z,99763.39
2017-10-10T08:33:41.862Z,99770.42
2017-10-10T08:36:09.363Z,99751.94
2017-10-10T08:38:36.990Z,99764.47
2017-10-10T08:41:04.485Z,99760.84
2017-10-10T08:43:31.977Z,99760.55
2017-10-10T08:46:00.199Z,99772.67
2017-10-10T08:48:27.715Z,99764.27
2017-10-10T08:50:55.214Z,99792.45
2017-10-10T08:53:22.693Z,99764.73
2017-10-10T08:55:50.204Z,99759.55
2017-10-10T08:58:17.697Z,99771.91
2017-10-10T09:00:45.190Z,99768.55
2017-10-10T09:03:12.669Z,99765.58
2017-10-10T09:05:40.152Z,99781.91
2017-10-10T09:08:07.665Z,99791.02
2017-10-10T09:10:35.168Z,99775.48
2017-10-10T09:13:02.652Z,99780.40
2017-10-10T09:15:30.133Z,99786.97
2017-10-10T09:17:57.630Z,99790.41
2017-10-10T09:20:25.128Z,99787.02
2017-10-10T09:22:52.664Z,99802.78
2017-10-10T09:25:20.151Z,99797.48
2017-10-10T09:27:47.688Z,99789.42
2017-10-10T09:30:15.217Z,99797.37
2017-10-10T09:32:42.708Z,99793.80
2017-10-10T09:35:10.250Z,99798.50
2017-10-10T09:37:37.795Z,99805.97
2017-10-10T09:40:05.258Z,99808.57
2017-10-10T09:42:32.752Z,99809.75
2017-10-10T09:45:00.223Z,99807.08
2017-10-10T09:47:27.700Z,99804.06
2017-10-10T09:49:55.197Z,99817.25
2017-10-10T09:52:22.667Z,99800.55
2017-10-10T09:54:50.139Z,99809.13
2017-10-10T09:57:17.685Z,99795.25
2017-10-10T09:59:45.154Z,99800.92
2017-10-10T10:02:12.642Z,99799.33
2017-10-10T10:04:40.166Z,99796.70
2017-10-10T10:07:07.649Z,99780.70
2017-10-10T10:09:35.127Z,99791.92
2017-10-10T10:12:02.663Z,99787.98
2017-10-10T10:14:30.216Z,99795.67
2017-10-10T10:16:57.672Z,99790.25
2017-10-10T10:19:25.163Z,99788.91
2017-10-10T10:21:52.638Z,99784.63
2017-10-10T10:24:20.120Z,99785.86
2017-10-10T10:26:47.622Z,99781.97
2017-10-10T10:29:15.086Z,99772.63
2017-10-10T10:31:42.562Z,99777.87
2017-10-10T10:34:10.058Z,99779.48
2017-10-10T10:36:37.542Z,99763.89
2017-10-10T10:39:05.435Z,99762.23
2017-10-10T10:41:33.287Z,99757.37
2017-10-10T10:44:00.765Z,99760.83
2017-10-10T10:46:28.239Z,99761.02
2017-10-10T10:48:55.727Z,99758.14
2017-10-10T10:51:23.609Z,99757.00
2017-10-10T10:53:51.077Z,99758.95
2017-10-10T10:56:18.570Z,99753.88
2017-10-10T10:58:46.052Z,99762.30
2017-10-10T11:01:13.518Z,99755.83
2017-10-10T11:03:41.026Z,99747.89
2017-10-10T11:06:08.500Z,99748.16
2017-10-10T11:08:35.995Z,99749.25
2017-10-10T11:11:03.473Z,99742.53
2017-10-10T11:13:30.956Z,99748.16
2017-10-10T11:15:58.432Z,99731.39
2017-10-10T11:18:26.852Z,99725.63
2017-10-10T11:20:54.364Z,99734.84
2017-10-10T11:23:21.893Z,99752.53
2017-10-10T11:25:49.384Z,99736.72
2017-10-10T11:28:16.879Z,99733.68
2017-10-10T11:30:44.368Z,99727.69
2017-10-10T11:33:11.878Z,99754.33
2017-10-10T11:35:39.360Z,99729.91
2017-10-10T11:38:06.871Z,99732.51
2017-10-10T11:40:34.399Z,99726.16
2017-10-10T11:43:01.892Z,99718.97
2017-10-10T11:45:29.405Z,99732.06
2017-10-10T11:47:56.894Z,99739.89
2017-10-10T11:50:24.368Z,99738.28
2017-10-10T11:52:51.859Z,99730.98
2017-10-10T11:55:19.354Z,99727.37
2017-10-10T11:57:46.847Z,99726.48
2017-10-10T12:00:14.319Z,99726.66
2017-10-10T12:02:41.862Z,99769.98
2017-10-10T12:05:09.350Z,99743.91
2017-10-10T12:07:36.856Z,99736.33
2017-10-10T12:10:04.427Z,99732.41
2017-10-10T12:12:32.001Z,99734.78
2017-10-10T12:14:59.518Z,99719.76
2017-10-10T12:17:27.084Z,99717.34
2017-10-10T12:19:54.574Z,99712.34
2017-10-10T12:22:22.082Z,99730.14
2017-10-10T12:24:49.579Z,99735.95
2017-10-10T12:27:17.296Z,99723.02
2017-10-10T12:29:44.782Z,99716.05
2017-10-10T12:32:12.272Z,99717.45
2017-10-10T12:34:39.764Z,99706.85
2017-10-10T12:37:07.254Z,99721.52
2017-10-10T12:39:34.762Z,99721.06
2017-10-10T12:42:02.258Z,99726.80
2017-10-10T12:44:29.738Z,99717.99
2017-10-10T12:46:57.327Z,99725.19
2017-10-10T12:49:24.815Z,99728.25
2017-10-10T12:51:52.303Z,99717.76
2017-10-10T12:54:19.790Z,99720.30
2017-10-10T12:56:47.317Z,99717.43
2017-10-10T12:59:14.814Z,99731.16
2017-10-10T13:01:42.289Z,99745.08
2017-10-10T13:04:09.819Z,99738.75
2017-10-10T13:06:37.318Z,99733.75
2017-10-10T13:09:04.851Z,99770.66
2017-10-10T13:11:32.338Z,99730.59
2017-10-10T13:13:59.849Z,99752.38
2017-10-10T13:16:27.353Z,99725.66
2017-10-10T13:18:54.933Z,99750.89
2017-10-10T13:21:22.420Z,99730.36
2017-10-10T13:23:49.936Z,99737.01
2017-10-10T13:26:17.420Z,99726.36
2017-10-10T13:28:44.938Z,99722.75
2017-10-10T13:31:12.462Z,99719.88
2017-10-10T13:33:39.989Z,99723.64
2017-10-10T13:36:07.495Z,99732.79
2017-10-10T13:38:34.981Z,99723.28
2017-10-10T13:41:02.488Z,99717.83
2017-10-10T13:43:30.022Z,99715.61
2017-10-10T13:45:57.557Z,99733.66
2017-10-10T13:48:25.066Z,99723.98
2017-10-10T13:50:52.570Z,99716.64
2017-10-10T13:53:20.354Z,99719.19
2017-10-10T13:55:47.842Z,99717.81
2017-10-10T13:58:15.911Z,99708.52
2017-10-10T14:00:44.010Z,99715.11
2017-10-10T14:03:11.738Z,99700.75
2017-10-10T14:05:39.229Z,99703.04
2017-10-10T14:08:06.751Z,99714.73
2017-10-10T14:10:34.215Z,99706.25
2017-10-10T14:13:01.684Z,99715.12
2017-10-10T14:15:29.157Z,99711.47
2017-10-10T14:17:56.639Z,99712.09
2017-10-10T14:20:24.128Z,99710.68
2017-10-10T14:22:51.682Z,99711.87
2017-10-10T14:25:19.141Z,99705.98
2017-10-10T14:27:46.591Z,99706.30
2017-10-10T14:30:14.223Z,99706.38
2017-10-10T14:32:41.712Z,99713.13
2017-10-10T14:35:09.193Z,99703.19
2017-10-10T14:37:36.732Z,99705.80
2017-10-10T14:40:04.221Z,99703.58
2017-10-10T14:42:31.735Z,99705.20
2017-10-10T14:44:59.231Z,99706.88
2017-10-10T14:47:26.697Z,99710.06
2017-10-10T14:49:54.200Z,99709.22
2017-10-10T14:52:21.670Z,99710.13
2017-10-10T14:54:49.189Z,99711.41
2017-10-10T14:57:16.681Z,99710.56
2017-10-10T14:59:44.236Z,99713.86
2017-10-10T15:02:11.787Z,99711.58
2017-10-10T15:04:39.380Z,99717.05
2017-10-10T15:07:06.855Z,99719.09
2017-10-10T15:09:34.672Z,99719.55
2017-10-10T15:12:02.379Z,99723.56
2017-10-10T15:14:30.584Z,99731.16
2017-10-10T15:16:58.060Z,99741.16
2017-10-10T15:19:25.533Z,99730.85
2017-10-10T15:21:53.047Z,99737.58
2017-10-10T15:24:20.544Z,99728.58
2017-10-10T15:26:48.017Z,99735.00
2017-10-10T15:29:15.548Z,99746.20
2017-10-10T15:31:43.044Z,99743.27
2017-10-10T15:34:10.568Z,99750.06
2017-10-10T15:36:38.093Z,99757.63
2017-10-10T15:39:05.574Z,99769.14
2017-10-10T15:41:33.079Z,99765.02
2017-10-10T15:44:00.601Z,99760.95
2017-10-10T15:46:28.170Z,99764.72
2017-10-10T15:48:55.662Z,99756.73
2017-10-10T15:51:23.162Z,99760.02
2017-10-10T15:53:50.701Z,99771.56
2017-10-10T15:56:18.245Z,99761.88
2017-10-10T15:58:45.754Z,99772.78
2017-10-10T16:01:13.338Z,99765.08
2017-10-10T16:03:40.852Z,99764.91
2017-10-10T16:06:08.388Z,99766.80
2017-10-10T16:08:35.910Z,99770.61
2017-10-10T16:11:03.413Z,99780.76
2017-10-10T16:13:30.921Z,99775.27
2017-10-10T16:15:58.549Z,99780.17
2017-10-10T16:18:26.350Z,99776.67
2017-10-10T16:20:53.941Z,99778.86
2017-10-10T16:23:21.470Z,99774.28
2017-10-10T16:25:49.093Z,99778.65
2017-10-10T16:28:16.606Z,99788.78
2017-10-10T16:30:44.177Z,99789.89
2017-10-10T16:33:11.731Z,99790.07
2017-10-10T16:35:39.298Z,99785.84
2017-10-10T16:38:06.996Z,99790.89
2017-10-10T16:40:34.508Z,99789.02
2017-10-10T16:43:02.006Z,99792.88
2017-10-10T16:45:29.505Z,99787.06
2017-10-10T16:47:57.014Z,99793.52
2017-10-10T16:50:24.513Z,99796.86
2017-10-10T16:52:53.218Z,99799.19
2017-10-10T16:55:20.776Z,99793.07
2017-10-10T16:57:48.351Z,99793.84
2017-10-10T17:00:15.858Z,99800.39
2017-10-10T17:02:43.396Z,99798.25
2017-10-10T17:05:10.879Z,99811.77
2017-10-10T17:07:38.406Z,99813.94
2017-10-10T17:10:05.926Z,99810.63
2017-10-10T17:12:33.426Z,99811.94
2017-10-10T17:15:00.941Z,99816.74
2017-10-10T17:17:28.454Z,99819.16
2017-10-10T17:19:55.976Z,99826.50
2017-10-10T17:22:23.528Z,99820.39
2017-10-10T17:24:51.043Z,99816.95
2017-10-10T17:27:18.558Z,99825.95
2017-10-10T17:29:46.070Z,99820.06
2017-10-10T17:32:13.572Z,99821.84
2017-10-10T17:34:41.086Z,99817.64
2017-10-10T17:39:44.998Z,99823.16
2017-10-10T17:42:12.515Z,99826.09
2017-10-10T17:44:40.089Z,99836.73
2017-10-10T17:47:07.610Z,99832.66
2017-10-10T17:49:35.132Z,99836.09
2017-10-10T17:52:02.651Z,99839.42
2017-10-10T17:54:30.168Z,99842.56
2017-10-10T17:56:57.748Z,99844.22
2017-10-10T17:59:25.318Z,99847.16
2017-10-10T18:04:27.867Z,99847.23
2017-10-10T18:06:55.418Z,99849.20
2017-10-10T18:09:22.982Z,99852.20
2017-10-10T18:11:50.610Z,99855.84
2017-10-10T18:14:18.113Z,99849.69
2017-10-10T18:16:45.639Z,99848.42
2017-10-10T18:19:13.191Z,99854.23
2017-10-10T18:21:40.782Z,99862.64
2017-10-10T18:24:08.279Z,99864.51
2017-10-10T18:26:35.853Z,99866.74
2017-10-10T18:29:03.351Z,99860.23
2017-10-10T18:31:30.869Z,99859.94
2017-10-10T18:33:58.415Z,99858.59
2017-10-10T18:36:25.961Z,99863.30
2017-10-10T18:38:53.468Z,99855.81
2017-10-10T18:41:21.052Z,99856.45
2017-10-10T18:43:48.573Z,99851.13
2017-10-10T18:46:16.132Z,99848.55
2017-10-10T18:48:43.669Z,99853.20
2017-10-10T18:51:11.186Z,99853.64
2017-10-10T18:53:38.682Z,99856.70
2017-10-10T18:56:07.575Z,99852.02
2017-10-10T18:58:35.091Z,99853.64
2017-10-10T19:01:02.614Z,99860.36
2017-10-10T19:03:30.203Z,99855.19
2017-10-10T19:05:57.733Z,99865.92
2017-10-10T19:08:25.327Z,99870.75
2017-10-10T19:10:52.877Z,99876.82
2017-10-10T19:13:20.425Z,99859.70
2017-10-10T19:15:47.954Z,99865.36
2017-10-10T19:18:15.551Z,99863.37
2017-10-10T19:20:43.020Z,99857.98
2017-10-10T19:23:10.542Z,99868.80
2017-10-10T19:25:38.220Z,99862.68
2017-10-10T19:28:05.880Z,99861.00
2017-10-10T19:30:33.434Z,99868.16
2017-10-10T19:33:01.031Z,99863.73
2017-10-10T19:35:28.620Z,99868.00
2017-10-10T19:37:56.152Z,99864.36
2017-10-10T19:40:23.954Z,99877.23
2017-10-10T19:42:51.571Z,99878.01
2017-10-10T19:45:20.310Z,99867.61
2017-10-10T19:47:47.950Z,99880.15
2017-10-10T19:50:15.631Z,99886.33
2017-10-10T19:52:44.395Z,99892.17
2017-10-10T19:55:12.956Z,99886.58
2017-10-10T19:57:40.750Z,99887.52
2017-10-10T20:00:08.289Z,99884.69
2017-10-10T20:02:35.856Z,99888.27
2017-10-10T20:05:03.377Z,99895.55
2017-10-10T20:07:30.958Z,99892.26
2017-10-10T20:09:58.510Z,99907.24
2017-10-10T20:12:26.158Z,99895.83
2017-10-10T20:14:54.001Z,99896.50
2017-10-10T20:17:21.657Z,99895.38
2017-10-10T20:19:50.251Z,99895.12
2017-10-10T20:22:17.764Z,99890.97
2017-10-10T20:24:45.589Z,99909.77
2017-10-10T20:27:13.679Z,99901.22
2017-10-10T20:29:41.241Z,99902.12
2017-10-10T20:32:08.733Z,99904.62
2017-10-10T20:34:36.285Z,99909.14
2017-10-10T20:37:03.772Z,99897.11
2017-10-10T20:39:31.557Z,99901.05
2017-10-10T20:41:59.174Z,99909.86
2017-10-10T20:44:26.759Z,99906.50
2017-10-10T20:46:54.265Z,99908.20
2017-10-10T20:49:21.775Z,99911.36
2017-10-10T20:51:49.758Z,99912.15
2017-10-10T20:54:17.637Z,99906.22
2017-10-10T20:56:45.129Z,99916.77
2017-10-10T20:59:12.740Z,99920.20
2017-10-10T21:01:40.232Z,99920.58
2017-10-10T21:04:07.755Z,99916.59
2017-10-10T21:06:35.235Z,99917.94
2017-10-10T21:09:02.744Z,99917.52
2017-10-10T21:11:30.294Z,99923.65
2017-10-10T21:13:57.762Z,99920.20
2017-10-10T21:16:25.257Z,99917.64
2017-10-10T21:18:52.733Z,99918.51
2017-10-10T21:21:20.197Z,99921.59
2017-10-10T21:23:47.843Z,99919.42
2017-10-10T21:26:15.320Z,99927.02
2017-10-10T21:28:42.804Z,99926.86
2017-10-10T21:31:10.280Z,99920.93
2017-10-10T21:33:37.762Z,99923.95
2017-10-10T21:36:05.217Z,99923.42
2017-10-10T21:38:32.717Z,99927.52
2017-10-10T21:41:00.185Z,99927.78
2017-10-10T21:43:27.695Z,99928.29
2017-10-10T21:45:55.165Z,99928.28
2017-10-10T21:48:22.636Z,99938.66
2017-10-10T21:50:50.131Z,99933.58
2017-10-10T21:53:17.654Z,99929.93
2017-10-10T21:55:45.128Z,99923.87
2017-10-10T21:58:12.593Z,99931.14
2017-10-10T22:00:40.104Z,99923.86
2017-10-10T22:03:07.594Z,99917.56
2017-10-10T22:05:35.049Z,99914.84
2017-10-10T22:08:02.523Z,99916.20
2017-10-10T22:10:30.004Z,99916.28
2017-10-10T22:12:57.481Z,99924.06
2017-10-10T22:15:24.956Z,99928.11
2017-10-10T22:17:52.416Z,99922.59
2017-10-10T22:20:19.977Z,99928.59
2017-10-10T22:22:47.458Z,99934.53
2017-10-10T22:25:14.903Z,99936.47
2017-10-10T22:27:42.373Z,99933.48
2017-10-10T22:30:09.864Z,99930.91
2017-10-10T22:32:37.363Z,99931.76
2017-10-10T22:35:04.813Z,99937.34
2017-10-10T22:37:32.270Z,99933.00
2017-10-10T22:39:59.727Z,99932.84
2017-10-10T22:42:27.181Z,99939.00
2017-10-10T22:44:54.712Z,99940.83
2017-10-10T22:47:22.217Z,99939.37
2017-10-10T22:49:50.189Z,99933.88
2017-10-10T22:52:17.684Z,99942.21
2017-10-10T22:54:45.195Z,99943.56
2017-10-10T22:57:12.696Z,99947.74
2017-10-10T22:59:40.231Z,99949.39
2017-10-10T23:02:07.776Z,99945.80
2017-10-10T23:04:35.264Z,99943.16
2017-10-10T23:07:02.768Z,99939.72
2017-10-10T23:09:30.251Z,99941.73
2017-10-10T23:11:57.721Z,99940.73
2017-10-10T23:14:25.353Z,99941.33
2017-10-10T23:16:52.847Z,99943.88
2017-10-10T23:19:20.329Z,99947.02
2017-10-10T23:21:47.820Z,99949.77
2017-10-10T23:24:15.288Z,99948.53
2017-10-10T23:26:42.781Z,99942.59
2017-10-10T23:29:10.253Z,99951.91
2017-10-10T23:31:37.807Z,99947.83
2017-10-10T23:34:05.300Z,99945.84
2017-10-10T23:36:32.782Z,99948.66
2017-10-10T23:39:00.243Z,99952.12
2017-10-10T23:41:27.739Z,99956.03
2017-10-10T23:43:55.280Z,99946.47
2017-10-10T23:46:22.782Z,99950.27
2017-10-10T23:48:50.242Z,99961.90
2017-10-10T23:51:17.717Z,99959.97
2017-10-10T23:53:45.181Z,99954.77
2017-10-10T23:56:12.657Z,99959.50
2017-10-10T23:58:40.157Z,99968.91
